Skip Navigation LinksHome page > Weather > Current weather Skip Navigation Links

Current Weather

Honolulu Intl, Honolulu

For information only: do not use for flight planning or navigation.
Latest weather
Observation time Wednesday, July 1, 2015 12:53 AM HST
Local time Wednesday, July 1, 2015 1:57 AM HST
Flight conditions Visual Meteorological Conditions
Winds
Wind direction North (10°)
Wind speed 3 mph
Visibility 10 mi.
Sky condition
Ceiling unlimited
Cloud layer few clouds 3,500 ft.
Temperature 77°F
Dewpoint 71°F
Altimeter 29.92 in.Hg
Derived measurements
Relative humidity 82%
Heat index 77°F
Density altitude 1522 ft.
Sea-level pressure 29.92 in.Hg
Remarks
Automated weather observing station with precipitation discriminator.
METAR PHNL 011053Z 01003KT 10SM FEW035 25/22 A2992 RMK AO2 SLP132 T02500217

Settings

Location code

InnerDrive.Weather 4.0.5567.0 Release CLR 4.0.30319.34014
Copyright ©2015 Inner Drive Technology. All rights reserved. Portions Copyright ©1986-2015 David Braverman.

Find weather

Site navigation


Skip Navigation Links

Place info

Page info

PayPal - The safer, easier way to pay online!

Return home.

Copyright ©2015 Inner Drive Technology. Purveyors of fine, hand-crafted computer software. Page printed 2015-07-01T11:57:15 UTC.